sensor_id;sensor_type;location;lat;lon;timestamp;P1;durP1;ratioP1;P2;durP2;ratioP2
10645;SDS011;5371;49.782;9.932;2024-02-04T00:00:11;1.20;;;1.10;;
10645;SDS011;5371;49.782;9.932;2024-02-04T00:02:41;1.53;;;1.20;;
10645;SDS011;5371;49.782;9.932;2024-02-04T00:05:08;1.30;;;1.20;;
10645;SDS011;5371;49.782;9.932;2024-02-04T00:07:35;1.83;;;1.27;;
10645;SDS011;5371;49.782;9.932;2024-02-04T00:10:02;1.30;;;1.20;;
10645;SDS011;5371;49.782;9.932;2024-02-04T00:12:29;1.50;;;1.30;;
10645;SDS011;5371;49.782;9.932;2024-02-04T00:14:55;1.70;;;1.27;;
10645;SDS011;5371;49.782;9.932;2024-02-04T00:17:22;1.30;;;1.20;;
10645;SDS011;5371;49.782;9.932;2024-02-04T00:19:56;1.93;;;1.30;;
10645;SDS011;5371;49.782;9.932;2024-02-04T00:22:23;1.40;;;1.30;;
10645;SDS011;5371;49.782;9.932;2024-02-04T00:24:50;2.00;;;1.47;;
10645;SDS011;5371;49.782;9.932;2024-02-04T00:27:17;1.30;;;1.20;;
10645;SDS011;5371;49.782;9.932;2024-02-04T00:29:44;1.40;;;1.30;;
10645;SDS011;5371;49.782;9.932;2024-02-04T00:32:11;1.60;;;1.23;;
10645;SDS011;5371;49.782;9.932;2024-02-04T00:34:39;1.97;;;1.40;;
10645;SDS011;5371;49.782;9.932;2024-02-04T00:37:07;1.67;;;1.20;;
10645;SDS011;5371;49.782;9.932;2024-02-04T00:39:34;1.50;;;1.40;;
10645;SDS011;5371;49.782;9.932;2024-02-04T00:42:01;1.40;;;1.30;;
10645;SDS011;5371;49.782;9.932;2024-02-04T00:44:28;1.67;;;1.50;;
10645;SDS011;5371;49.782;9.932;2024-02-04T00:46:55;1.50;;;1.40;;
10645;SDS011;5371;49.782;9.932;2024-02-04T00:49:22;1.83;;;1.60;;
10645;SDS011;5371;49.782;9.932;2024-02-04T00:51:49;2.23;;;1.43;;
10645;SDS011;5371;49.782;9.932;2024-02-04T00:54:17;1.83;;;1.60;;
10645;SDS011;5371;49.782;9.932;2024-02-04T00:56:44;2.03;;;1.83;;
10645;SDS011;5371;49.782;9.932;2024-02-04T00:59:11;1.60;;;1.50;;
10645;SDS011;5371;49.782;9.932;2024-02-04T01:01:38;2.40;;;1.67;;
10645;SDS011;5371;49.782;9.932;2024-02-04T01:04:05;1.77;;;1.67;;
10645;SDS011;5371;49.782;9.932;2024-02-04T01:06:32;1.90;;;1.63;;
10645;SDS011;5371;49.782;9.932;2024-02-04T01:08:59;1.93;;;1.77;;
10645;SDS011;5371;49.782;9.932;2024-02-04T01:11:28;1.80;;;1.70;;
10645;SDS011;5371;49.782;9.932;2024-02-04T01:13:55;3.70;;;1.87;;
10645;SDS011;5371;49.782;9.932;2024-02-04T01:16:22;1.97;;;1.80;;
10645;SDS011;5371;49.782;9.932;2024-02-04T01:18:48;1.97;;;1.77;;
10645;SDS011;5371;49.782;9.932;2024-02-04T01:21:15;2.20;;;2.00;;
10645;SDS011;5371;49.782;9.932;2024-02-04T01:23:42;2.17;;;1.93;;
10645;SDS011;5371;49.782;9.932;2024-02-04T01:26:09;2.17;;;1.80;;
10645;SDS011;5371;49.782;9.932;2024-02-04T01:28:37;4.93;;;1.70;;
10645;SDS011;5371;49.782;9.932;2024-02-04T01:31:04;2.20;;;2.00;;
10645;SDS011;5371;49.782;9.932;2024-02-04T01:33:31;1.90;;;1.80;;
10645;SDS011;5371;49.782;9.932;2024-02-04T01:35:58;2.43;;;1.67;;
10645;SDS011;5371;49.782;9.932;2024-02-04T01:38:25;2.10;;;1.90;;
10645;SDS011;5371;49.782;9.932;2024-02-04T01:40:52;2.10;;;1.90;;
10645;SDS011;5371;49.782;9.932;2024-02-04T01:43:19;2.80;;;1.87;;
10645;SDS011;5371;49.782;9.932;2024-02-04T01:45:50;2.10;;;1.90;;
10645;SDS011;5371;49.782;9.932;2024-02-04T01:48:18;3.73;;;1.87;;
10645;SDS011;5371;49.782;9.932;2024-02-04T01:50:45;2.50;;;1.90;;
10645;SDS011;5371;49.782;9.932;2024-02-04T01:53:14;2.17;;;1.93;;
10645;SDS011;5371;49.782;9.932;2024-02-04T01:55:41;2.23;;;1.70;;
10645;SDS011;5371;49.782;9.932;2024-02-04T01:58:08;2.27;;;2.00;;
10645;SDS011;5371;49.782;9.932;2024-02-04T02:00:35;5.13;;;1.90;;
10645;SDS011;5371;49.782;9.932;2024-02-04T02:03:04;2.13;;;1.80;;
10645;SDS011;5371;49.782;9.932;2024-02-04T02:05:32;3.80;;;2.10;;
10645;SDS011;5371;49.782;9.932;2024-02-04T02:07:59;2.40;;;2.00;;
10645;SDS011;5371;49.782;9.932;2024-02-04T02:10:26;2.20;;;2.00;;
10645;SDS011;5371;49.782;9.932;2024-02-04T02:12:54;3.10;;;2.10;;
10645;SDS011;5371;49.782;9.932;2024-02-04T02:15:24;2.17;;;1.87;;
10645;SDS011;5371;49.782;9.932;2024-02-04T02:17:54;2.37;;;1.90;;
10645;SDS011;5371;49.782;9.932;2024-02-04T02:20:27;2.60;;;1.80;;
10645;SDS011;5371;49.782;9.932;2024-02-04T02:23:01;2.13;;;1.93;;
10645;SDS011;5371;49.782;9.932;2024-02-04T02:25:34;1.87;;;1.70;;
10645;SDS011;5371;49.782;9.932;2024-02-04T02:28:03;2.00;;;1.70;;
10645;SDS011;5371;49.782;9.932;2024-02-04T02:30:30;1.97;;;1.77;;
10645;SDS011;5371;49.782;9.932;2024-02-04T02:32:57;2.00;;;1.80;;
10645;SDS011;5371;49.782;9.932;2024-02-04T02:35:24;2.10;;;1.80;;
10645;SDS011;5371;49.782;9.932;2024-02-04T02:37:53;1.87;;;1.73;;
10645;SDS011;5371;49.782;9.932;2024-02-04T02:40:25;2.00;;;1.80;;
10645;SDS011;5371;49.782;9.932;2024-02-04T02:42:57;2.00;;;1.80;;
10645;SDS011;5371;49.782;9.932;2024-02-04T02:45:28;2.00;;;1.70;;
10645;SDS011;5371;49.782;9.932;2024-02-04T02:47:54;2.10;;;1.90;;
10645;SDS011;5371;49.782;9.932;2024-02-04T02:50:22;2.13;;;1.90;;
10645;SDS011;5371;49.782;9.932;2024-02-04T02:52:49;2.00;;;1.83;;
10645;SDS011;5371;49.782;9.932;2024-02-04T02:55:16;2.20;;;2.00;;
10645;SDS011;5371;49.782;9.932;2024-02-04T02:57:43;3.27;;;1.90;;
10645;SDS011;5371;49.782;9.932;2024-02-04T03:00:12;2.00;;;1.80;;
10645;SDS011;5371;49.782;9.932;2024-02-04T03:02:40;2.10;;;1.90;;
10645;SDS011;5371;49.782;9.932;2024-02-04T03:05:07;2.67;;;2.10;;
10645;SDS011;5371;49.782;9.932;2024-02-04T03:07:34;2.00;;;1.77;;
10645;SDS011;5371;49.782;9.932;2024-02-04T03:10:01;2.40;;;2.20;;
10645;SDS011;5371;49.782;9.932;2024-02-04T03:12:29;3.30;;;1.97;;
10645;SDS011;5371;49.782;9.932;2024-02-04T03:14:56;2.40;;;2.17;;
10645;SDS011;5371;49.782;9.932;2024-02-04T03:17:24;3.10;;;2.20;;
10645;SDS011;5371;49.782;9.932;2024-02-04T03:19:52;2.37;;;2.17;;
10645;SDS011;5371;49.782;9.932;2024-02-04T03:22:20;2.20;;;2.00;;
10645;SDS011;5371;49.782;9.932;2024-02-04T03:24:48;2.47;;;2.27;;
10645;SDS011;5371;49.782;9.932;2024-02-04T03:27:16;2.70;;;2.20;;
10645;SDS011;5371;49.782;9.932;2024-02-04T03:29:44;2.33;;;2.13;;
10645;SDS011;5371;49.782;9.932;2024-02-04T03:32:11;2.33;;;2.13;;
10645;SDS011;5371;49.782;9.932;2024-02-04T03:34:40;2.40;;;2.20;;
10645;SDS011;5371;49.782;9.932;2024-02-04T03:37:07;2.50;;;2.13;;
10645;SDS011;5371;49.782;9.932;2024-02-04T03:39:34;2.40;;;2.20;;
10645;SDS011;5371;49.782;9.932;2024-02-04T03:42:01;2.57;;;2.30;;
10645;SDS011;5371;49.782;9.932;2024-02-04T03:44:29;2.70;;;2.10;;
10645;SDS011;5371;49.782;9.932;2024-02-04T03:46:56;4.17;;;2.30;;
10645;SDS011;5371;49.782;9.932;2024-02-04T03:49:23;2.07;;;1.87;;
10645;SDS011;5371;49.782;9.932;2024-02-04T03:51:51;2.37;;;2.17;;
10645;SDS011;5371;49.782;9.932;2024-02-04T03:54:18;2.80;;;1.83;;
10645;SDS011;5371;49.782;9.932;2024-02-04T03:56:45;2.20;;;2.00;;
10645;SDS011;5371;49.782;9.932;2024-02-04T03:59:12;2.20;;;2.00;;
10645;SDS011;5371;49.782;9.932;2024-02-04T04:01:39;1.70;;;1.60;;
10645;SDS011;5371;49.782;9.932;2024-02-04T04:04:08;2.20;;;2.00;;
10645;SDS011;5371;49.782;9.932;2024-02-04T04:06:34;2.13;;;1.93;;
10645;SDS011;5371;49.782;9.932;2024-02-04T04:09:03;1.90;;;1.70;;
10645;SDS011;5371;49.782;9.932;2024-02-04T04:11:31;1.80;;;1.70;;
10645;SDS011;5371;49.782;9.932;2024-02-04T04:13:58;1.80;;;1.70;;
10645;SDS011;5371;49.782;9.932;2024-02-04T04:16:25;2.17;;;1.70;;
10645;SDS011;5371;49.782;9.932;2024-02-04T04:18:52;2.50;;;2.20;;
10645;SDS011;5371;49.782;9.932;2024-02-04T04:21:19;2.20;;;2.00;;
10645;SDS011;5371;49.782;9.932;2024-02-04T04:23:46;2.40;;;2.20;;
10645;SDS011;5371;49.782;9.932;2024-02-04T04:26:14;3.07;;;2.00;;
10645;SDS011;5371;49.782;9.932;2024-02-04T04:28:41;4.10;;;1.80;;
10645;SDS011;5371;49.782;9.932;2024-02-04T04:31:08;2.60;;;1.90;;
10645;SDS011;5371;49.782;9.932;2024-02-04T04:33:35;2.50;;;2.30;;
10645;SDS011;5371;49.782;9.932;2024-02-04T04:36:02;2.20;;;2.00;;
10645;SDS011;5371;49.782;9.932;2024-02-04T04:38:29;2.30;;;2.07;;
10645;SDS011;5371;49.782;9.932;2024-02-04T04:40:56;2.63;;;2.13;;
10645;SDS011;5371;49.782;9.932;2024-02-04T04:43:25;2.23;;;2.00;;
10645;SDS011;5371;49.782;9.932;2024-02-04T04:45:52;2.30;;;2.10;;
10645;SDS011;5371;49.782;9.932;2024-02-04T04:48:19;2.53;;;2.00;;
10645;SDS011;5371;49.782;9.932;2024-02-04T04:50:46;2.30;;;1.80;;
10645;SDS011;5371;49.782;9.932;2024-02-04T04:53:13;2.00;;;1.70;;
10645;SDS011;5371;49.782;9.932;2024-02-04T04:55:40;2.10;;;1.90;;
10645;SDS011;5371;49.782;9.932;2024-02-04T04:58:07;2.07;;;1.87;;
10645;SDS011;5371;49.782;9.932;2024-02-04T05:00:35;2.07;;;1.87;;
10645;SDS011;5371;49.782;9.932;2024-02-04T05:03:02;2.30;;;2.10;;
10645;SDS011;5371;49.782;9.932;2024-02-04T05:05:29;2.10;;;1.90;;
10645;SDS011;5371;49.782;9.932;2024-02-04T05:07:56;1.87;;;1.70;;
10645;SDS011;5371;49.782;9.932;2024-02-04T05:10:23;2.83;;;1.90;;
10645;SDS011;5371;49.782;9.932;2024-02-04T05:12:50;2.00;;;1.80;;
10645;SDS011;5371;49.782;9.932;2024-02-04T05:15:17;2.00;;;1.70;;
10645;SDS011;5371;49.782;9.932;2024-02-04T05:17:45;2.10;;;1.90;;
10645;SDS011;5371;49.782;9.932;2024-02-04T05:20:13;2.23;;;1.60;;
10645;SDS011;5371;49.782;9.932;2024-02-04T05:22:40;2.20;;;1.50;;
10645;SDS011;5371;49.782;9.932;2024-02-04T05:25:07;2.23;;;1.20;;
10645;SDS011;5371;49.782;9.932;2024-02-04T05:27:37;1.90;;;1.60;;
10645;SDS011;5371;49.782;9.932;2024-02-04T05:30:04;1.50;;;1.30;;
10645;SDS011;5371;49.782;9.932;2024-02-04T05:32:32;1.70;;;1.60;;
10645;SDS011;5371;49.782;9.932;2024-02-04T05:35:00;1.60;;;1.50;;
10645;SDS011;5371;49.782;9.932;2024-02-04T05:37:27;1.57;;;1.40;;
10645;SDS011;5371;49.782;9.932;2024-02-04T05:39:54;2.63;;;1.40;;
10645;SDS011;5371;49.782;9.932;2024-02-04T05:42:21;2.17;;;1.40;;
10645;SDS011;5371;49.782;9.932;2024-02-04T05:44:48;1.33;;;1.23;;
10645;SDS011;5371;49.782;9.932;2024-02-04T05:47:15;1.60;;;1.50;;
10645;SDS011;5371;49.782;9.932;2024-02-04T05:49:42;1.50;;;1.33;;
10645;SDS011;5371;49.782;9.932;2024-02-04T05:52:12;2.23;;;1.20;;
10645;SDS011;5371;49.782;9.932;2024-02-04T05:54:39;1.70;;;1.60;;
10645;SDS011;5371;49.782;9.932;2024-02-04T05:57:06;1.77;;;1.50;;
10645;SDS011;5371;49.782;9.932;2024-02-04T05:59:33;2.70;;;1.90;;
10645;SDS011;5371;49.782;9.932;2024-02-04T06:02:00;1.90;;;1.70;;
10645;SDS011;5371;49.782;9.932;2024-02-04T06:04:27;1.73;;;1.60;;
10645;SDS011;5371;49.782;9.932;2024-02-04T06:06:54;2.17;;;1.97;;
10645;SDS011;5371;49.782;9.932;2024-02-04T06:09:22;2.27;;;2.00;;
10645;SDS011;5371;49.782;9.932;2024-02-04T06:11:49;2.20;;;2.00;;
10645;SDS011;5371;49.782;9.932;2024-02-04T06:14:16;3.00;;;2.17;;
10645;SDS011;5371;49.782;9.932;2024-02-04T06:16:43;2.13;;;1.93;;
10645;SDS011;5371;49.782;9.932;2024-02-04T06:19:10;2.27;;;2.07;;
10645;SDS011;5371;49.782;9.932;2024-02-04T06:21:38;2.17;;;1.90;;
10645;SDS011;5371;49.782;9.932;2024-02-04T06:24:05;2.80;;;2.50;;
10645;SDS011;5371;49.782;9.932;2024-02-04T06:26:33;2.97;;;2.20;;
10645;SDS011;5371;49.782;9.932;2024-02-04T06:29:04;3.10;;;2.17;;
10645;SDS011;5371;49.782;9.932;2024-02-04T06:31:31;2.53;;;2.33;;
10645;SDS011;5371;49.782;9.932;2024-02-04T06:33:58;4.60;;;2.30;;
10645;SDS011;5371;49.782;9.932;2024-02-04T06:36:27;2.60;;;2.30;;
10645;SDS011;5371;49.782;9.932;2024-02-04T06:38:54;2.20;;;1.97;;
10645;SDS011;5371;49.782;9.932;2024-02-04T06:41:21;2.10;;;1.90;;
10645;SDS011;5371;49.782;9.932;2024-02-04T06:43:49;2.40;;;2.20;;
10645;SDS011;5371;49.782;9.932;2024-02-04T06:46:23;2.70;;;2.10;;
10645;SDS011;5371;49.782;9.932;2024-02-04T06:48:50;2.40;;;2.13;;
10645;SDS011;5371;49.782;9.932;2024-02-04T06:51:17;2.67;;;2.20;;
10645;SDS011;5371;49.782;9.932;2024-02-04T06:53:44;2.20;;;1.80;;
10645;SDS011;5371;49.782;9.932;2024-02-04T06:56:11;2.17;;;1.97;;
10645;SDS011;5371;49.782;9.932;2024-02-04T06:58:38;2.60;;;2.20;;
10645;SDS011;5371;49.782;9.932;2024-02-04T07:01:06;1.97;;;1.77;;
10645;SDS011;5371;49.782;9.932;2024-02-04T07:03:33;1.97;;;1.77;;
10645;SDS011;5371;49.782;9.932;2024-02-04T07:06:00;2.00;;;1.80;;
10645;SDS011;5371;49.782;9.932;2024-02-04T07:08:27;1.70;;;1.60;;
10645;SDS011;5371;49.782;9.932;2024-02-04T07:10:54;2.13;;;1.87;;
10645;SDS011;5371;49.782;9.932;2024-02-04T07:13:21;1.67;;;1.57;;
10645;SDS011;5371;49.782;9.932;2024-02-04T07:15:48;2.40;;;1.60;;
10645;SDS011;5371;49.782;9.932;2024-02-04T07:18:16;1.83;;;1.63;;
10645;SDS011;5371;49.782;9.932;2024-02-04T07:20:48;1.67;;;1.57;;
10645;SDS011;5371;49.782;9.932;2024-02-04T07:23:15;1.90;;;1.63;;
10645;SDS011;5371;49.782;9.932;2024-02-04T07:25:42;2.20;;;1.70;;
10645;SDS011;5371;49.782;9.932;2024-02-04T07:28:09;1.63;;;1.53;;
10645;SDS011;5371;49.782;9.932;2024-02-04T07:30:36;1.50;;;1.40;;
10645;SDS011;5371;49.782;9.932;2024-02-04T07:33:02;1.87;;;1.43;;
10645;SDS011;5371;49.782;9.932;2024-02-04T07:35:31;2.10;;;1.53;;
10645;SDS011;5371;49.782;9.932;2024-02-04T07:37:58;1.60;;;1.47;;
10645;SDS011;5371;49.782;9.932;2024-02-04T07:40:25;2.63;;;1.60;;
10645;SDS011;5371;49.782;9.932;2024-02-04T07:42:53;1.70;;;1.37;;
10645;SDS011;5371;49.782;9.932;2024-02-04T07:45:20;1.50;;;1.40;;
10645;SDS011;5371;49.782;9.932;2024-02-04T07:47:47;3.40;;;1.70;;
10645;SDS011;5371;49.782;9.932;2024-02-04T07:50:14;1.50;;;1.40;;
10645;SDS011;5371;49.782;9.932;2024-02-04T07:52:42;2.03;;;1.50;;
10645;SDS011;5371;49.782;9.932;2024-02-04T07:55:09;1.73;;;1.57;;
10645;SDS011;5371;49.782;9.932;2024-02-04T07:57:36;1.93;;;1.70;;
10645;SDS011;5371;49.782;9.932;2024-02-04T08:00:03;3.47;;;2.60;;
10645;SDS011;5371;49.782;9.932;2024-02-04T08:02:37;3.23;;;1.73;;
10645;SDS011;5371;49.782;9.932;2024-02-04T08:05:04;1.83;;;1.63;;
10645;SDS011;5371;49.782;9.932;2024-02-04T08:07:32;2.20;;;1.50;;
10645;SDS011;5371;49.782;9.932;2024-02-04T08:10:00;2.60;;;2.27;;
10645;SDS011;5371;49.782;9.932;2024-02-04T08:12:28;2.00;;;1.80;;
10645;SDS011;5371;49.782;9.932;2024-02-04T08:14:55;3.43;;;2.07;;
10645;SDS011;5371;49.782;9.932;2024-02-04T08:17:22;2.17;;;1.97;;
10645;SDS011;5371;49.782;9.932;2024-02-04T08:19:48;2.50;;;2.03;;
10645;SDS011;5371;49.782;9.932;2024-02-04T08:22:15;1.70;;;1.60;;
10645;SDS011;5371;49.782;9.932;2024-02-04T08:24:43;2.57;;;1.80;;
10645;SDS011;5371;49.782;9.932;2024-02-04T08:27:11;2.80;;;1.80;;
10645;SDS011;5371;49.782;9.932;2024-02-04T08:29:41;2.13;;;1.93;;
10645;SDS011;5371;49.782;9.932;2024-02-04T08:32:08;2.50;;;1.73;;
10645;SDS011;5371;49.782;9.932;2024-02-04T08:34:35;2.00;;;1.80;;
10645;SDS011;5371;49.782;9.932;2024-02-04T08:37:02;2.33;;;1.80;;
10645;SDS011;5371;49.782;9.932;2024-02-04T08:39:29;2.57;;;1.83;;
10645;SDS011;5371;49.782;9.932;2024-02-04T08:42:23;2.07;;;1.60;;
10645;SDS011;5371;49.782;9.932;2024-02-04T08:44:49;1.70;;;1.60;;
10645;SDS011;5371;49.782;9.932;2024-02-04T08:47:16;1.57;;;1.43;;
10645;SDS011;5371;49.782;9.932;2024-02-04T08:49:44;2.80;;;1.70;;
10645;SDS011;5371;49.782;9.932;2024-02-04T08:52:11;1.60;;;1.50;;
10645;SDS011;5371;49.782;9.932;2024-02-04T08:54:38;1.70;;;1.60;;
10645;SDS011;5371;49.782;9.932;2024-02-04T08:57:05;1.57;;;1.47;;
10645;SDS011;5371;49.782;9.932;2024-02-04T08:59:33;1.60;;;1.50;;
10645;SDS011;5371;49.782;9.932;2024-02-04T09:02:00;2.00;;;1.77;;
10645;SDS011;5371;49.782;9.932;2024-02-04T09:04:26;1.70;;;1.60;;
10645;SDS011;5371;49.782;9.932;2024-02-04T09:06:53;1.70;;;1.60;;
10645;SDS011;5371;49.782;9.932;2024-02-04T09:09:20;2.23;;;1.60;;
10645;SDS011;5371;49.782;9.932;2024-02-04T09:11:47;1.40;;;1.30;;
10645;SDS011;5371;49.782;9.932;2024-02-04T09:14:14;1.53;;;1.43;;
10645;SDS011;5371;49.782;9.932;2024-02-04T09:16:42;1.57;;;1.47;;
10645;SDS011;5371;49.782;9.932;2024-02-04T09:19:09;1.50;;;1.40;;
10645;SDS011;5371;49.782;9.932;2024-02-04T09:21:36;1.50;;;1.40;;
10645;SDS011;5371;49.782;9.932;2024-02-04T09:24:03;1.83;;;1.40;;
10645;SDS011;5371;49.782;9.932;2024-02-04T09:26:31;1.37;;;1.10;;
10645;SDS011;5371;49.782;9.932;2024-02-04T09:28:58;1.30;;;1.20;;
10645;SDS011;5371;49.782;9.932;2024-02-04T09:31:24;1.50;;;1.20;;
10645;SDS011;5371;49.782;9.932;2024-02-04T09:33:53;1.83;;;1.20;;
10645;SDS011;5371;49.782;9.932;2024-02-04T09:36:20;1.77;;;1.20;;
10645;SDS011;5371;49.782;9.932;2024-02-04T09:38:48;1.13;;;1.00;;
10645;SDS011;5371;49.782;9.932;2024-02-04T09:41:15;1.80;;;1.10;;
10645;SDS011;5371;49.782;9.932;2024-02-04T09:43:42;2.83;;;1.17;;
10645;SDS011;5371;49.782;9.932;2024-02-04T09:46:09;0.90;;;0.90;;
10645;SDS011;5371;49.782;9.932;2024-02-04T09:48:37;0.93;;;0.90;;
10645;SDS011;5371;49.782;9.932;2024-02-04T09:51:06;1.00;;;0.90;;
10645;SDS011;5371;49.782;9.932;2024-02-04T09:53:34;0.93;;;0.83;;
10645;SDS011;5371;49.782;9.932;2024-02-04T09:56:05;1.00;;;0.90;;
10645;SDS011;5371;49.782;9.932;2024-02-04T09:58:33;1.20;;;0.90;;
10645;SDS011;5371;49.782;9.932;2024-02-04T10:01:02;1.03;;;0.93;;
10645;SDS011;5371;49.782;9.932;2024-02-04T10:03:29;1.90;;;0.80;;
10645;SDS011;5371;49.782;9.932;2024-02-04T10:05:56;1.00;;;0.87;;
10645;SDS011;5371;49.782;9.932;2024-02-04T10:08:25;0.80;;;0.80;;
10645;SDS011;5371;49.782;9.932;2024-02-04T10:10:52;2.80;;;1.00;;
10645;SDS011;5371;49.782;9.932;2024-02-04T10:13:19;1.00;;;0.80;;
10645;SDS011;5371;49.782;9.932;2024-02-04T10:15:47;0.90;;;0.80;;
10645;SDS011;5371;49.782;9.932;2024-02-04T10:18:13;0.90;;;0.80;;
10645;SDS011;5371;49.782;9.932;2024-02-04T10:20:42;0.90;;;0.80;;
10645;SDS011;5371;49.782;9.932;2024-02-04T10:23:09;0.90;;;0.80;;
10645;SDS011;5371;49.782;9.932;2024-02-04T10:25:38;0.80;;;0.80;;
10645;SDS011;5371;49.782;9.932;2024-02-04T10:28:05;1.00;;;0.90;;
10645;SDS011;5371;49.782;9.932;2024-02-04T10:30:32;0.80;;;0.70;;
10645;SDS011;5371;49.782;9.932;2024-02-04T10:33:00;1.30;;;1.10;;
10645;SDS011;5371;49.782;9.932;2024-02-04T10:35:27;1.17;;;0.73;;
10645;SDS011;5371;49.782;9.932;2024-02-04T10:37:54;0.80;;;0.80;;
10645;SDS011;5371;49.782;9.932;2024-02-04T10:40:21;1.20;;;1.00;;
10645;SDS011;5371;49.782;9.932;2024-02-04T10:42:51;1.00;;;0.90;;
10645;SDS011;5371;49.782;9.932;2024-02-04T10:45:20;1.03;;;0.90;;
10645;SDS011;5371;49.782;9.932;2024-02-04T10:47:50;1.77;;;0.90;;
10645;SDS011;5371;49.782;9.932;2024-02-04T10:50:22;0.90;;;0.70;;
10645;SDS011;5371;49.782;9.932;2024-02-04T10:52:50;1.30;;;0.90;;
10645;SDS011;5371;49.782;9.932;2024-02-04T10:55:18;1.30;;;0.80;;
10645;SDS011;5371;49.782;9.932;2024-02-04T10:57:47;1.00;;;0.90;;
10645;SDS011;5371;49.782;9.932;2024-02-04T11:00:16;1.03;;;0.80;;
10645;SDS011;5371;49.782;9.932;2024-02-04T11:02:44;1.30;;;0.80;;
10645;SDS011;5371;49.782;9.932;2024-02-04T11:05:13;1.13;;;0.83;;
10645;SDS011;5371;49.782;9.932;2024-02-04T11:07:42;1.83;;;0.93;;
10645;SDS011;5371;49.782;9.932;2024-02-04T11:10:10;0.90;;;0.90;;
10645;SDS011;5371;49.782;9.932;2024-02-04T11:12:37;1.17;;;1.00;;
10645;SDS011;5371;49.782;9.932;2024-02-04T11:15:05;1.58;;;0.90;;
10645;SDS011;5371;49.782;9.932;2024-02-04T11:20:54;1.17;;;0.90;;
10645;SDS011;5371;49.782;9.932;2024-02-04T11:23:35;1.90;;;1.10;;
10645;SDS011;5371;49.782;9.932;2024-02-04T11:26:07;1.20;;;1.00;;
10645;SDS011;5371;49.782;9.932;2024-02-04T11:28:35;1.20;;;1.10;;
10645;SDS011;5371;49.782;9.932;2024-02-04T11:31:02;1.50;;;0.93;;
10645;SDS011;5371;49.782;9.932;2024-02-04T11:33:31;1.40;;;1.30;;
10645;SDS011;5371;49.782;9.932;2024-02-04T11:35:58;1.50;;;1.10;;
10645;SDS011;5371;49.782;9.932;2024-02-04T11:38:30;1.33;;;1.23;;
10645;SDS011;5371;49.782;9.932;2024-02-04T11:40:58;1.57;;;1.37;;
10645;SDS011;5371;49.782;9.932;2024-02-04T11:43:25;2.13;;;1.43;;
10645;SDS011;5371;49.782;9.932;2024-02-04T11:45:52;1.47;;;1.37;;
10645;SDS011;5371;49.782;9.932;2024-02-04T11:48:28;1.80;;;1.40;;
10645;SDS011;5371;49.782;9.932;2024-02-04T11:50:58;1.53;;;1.40;;
10645;SDS011;5371;49.782;9.932;2024-02-04T11:53:26;1.70;;;1.40;;
10645;SDS011;5371;49.782;9.932;2024-02-04T11:55:57;1.40;;;1.30;;
10645;SDS011;5371;49.782;9.932;2024-02-04T11:58:25;2.10;;;1.33;;
10645;SDS011;5371;49.782;9.932;2024-02-04T12:00:53;1.50;;;1.40;;
10645;SDS011;5371;49.782;9.932;2024-02-04T12:03:29;1.87;;;1.37;;
10645;SDS011;5371;49.782;9.932;2024-02-04T12:05:58;1.40;;;1.20;;
10645;SDS011;5371;49.782;9.932;2024-02-04T12:08:26;1.30;;;1.17;;
10645;SDS011;5371;49.782;9.932;2024-02-04T12:10:53;1.40;;;1.30;;
10645;SDS011;5371;49.782;9.932;2024-02-04T12:13:21;2.50;;;1.50;;
10645;SDS011;5371;49.782;9.932;2024-02-04T12:15:48;1.30;;;1.20;;
10645;SDS011;5371;49.782;9.932;2024-02-04T12:18:15;1.10;;;1.00;;
10645;SDS011;5371;49.782;9.932;2024-02-04T12:20:45;1.30;;;1.20;;
10645;SDS011;5371;49.782;9.932;2024-02-04T12:23:14;1.43;;;1.03;;
10645;SDS011;5371;49.782;9.932;2024-02-04T12:25:41;1.17;;;1.03;;
10645;SDS011;5371;49.782;9.932;2024-02-04T12:28:08;1.20;;;1.10;;
10645;SDS011;5371;49.782;9.932;2024-02-04T12:30:35;1.93;;;1.10;;
10645;SDS011;5371;49.782;9.932;2024-02-04T12:33:03;2.57;;;1.13;;
10645;SDS011;5371;49.782;9.932;2024-02-04T12:35:31;1.30;;;1.10;;
10645;SDS011;5371;49.782;9.932;2024-02-04T12:37:58;1.48;;;1.30;;
10645;SDS011;5371;49.782;9.932;2024-02-04T12:40:28;1.83;;;1.20;;
10645;SDS011;5371;49.782;9.932;2024-02-04T12:42:55;1.20;;;1.10;;
10645;SDS011;5371;49.782;9.932;2024-02-04T12:45:23;1.27;;;1.17;;
10645;SDS011;5371;49.782;9.932;2024-02-04T12:47:50;1.10;;;1.00;;
10645;SDS011;5371;49.782;9.932;2024-02-04T12:50:18;1.20;;;1.10;;
10645;SDS011;5371;49.782;9.932;2024-02-04T12:52:45;1.47;;;1.20;;
10645;SDS011;5371;49.782;9.932;2024-02-04T12:58:03;1.25;;;1.00;;
10645;SDS011;5371;49.782;9.932;2024-02-04T13:00:31;0.90;;;0.90;;
10645;SDS011;5371;49.782;9.932;2024-02-04T13:02:58;1.37;;;1.00;;
10645;SDS011;5371;49.782;9.932;2024-02-04T13:05:26;2.13;;;0.82;;
10645;SDS011;5371;49.782;9.932;2024-02-04T13:07:55;1.63;;;0.80;;
10645;SDS011;5371;49.782;9.932;2024-02-04T13:10:23;3.63;;;1.70;;
10645;SDS011;5371;49.782;9.932;2024-02-04T13:12:59;1.10;;;1.00;;
10645;SDS011;5371;49.782;9.932;2024-02-04T13:15:26;1.00;;;0.80;;
10645;SDS011;5371;49.782;9.932;2024-02-04T13:17:54;1.00;;;0.90;;
10645;SDS011;5371;49.782;9.932;2024-02-04T13:20:21;1.00;;;0.90;;
10645;SDS011;5371;49.782;9.932;2024-02-04T13:22:48;1.17;;;0.80;;
10645;SDS011;5371;49.782;9.932;2024-02-04T13:25:15;1.90;;;0.90;;
10645;SDS011;5371;49.782;9.932;2024-02-04T13:27:42;1.13;;;0.82;;
10645;SDS011;5371;49.782;9.932;2024-02-04T13:30:10;0.80;;;0.80;;
10645;SDS011;5371;49.782;9.932;2024-02-04T13:32:38;1.17;;;0.70;;
10645;SDS011;5371;49.782;9.932;2024-02-04T13:35:06;1.00;;;0.90;;
10645;SDS011;5371;49.782;9.932;2024-02-04T13:37:34;1.03;;;0.80;;
10645;SDS011;5371;49.782;9.932;2024-02-04T13:40:02;1.20;;;0.80;;
10645;SDS011;5371;49.782;9.932;2024-02-04T13:42:31;0.98;;;0.88;;
10645;SDS011;5371;49.782;9.932;2024-02-04T13:44:58;1.00;;;0.90;;
10645;SDS011;5371;49.782;9.932;2024-02-04T13:47:26;0.93;;;0.77;;
10645;SDS011;5371;49.782;9.932;2024-02-04T13:49:53;1.73;;;0.82;;
10645;SDS011;5371;49.782;9.932;2024-02-04T13:52:21;0.70;;;0.70;;
10645;SDS011;5371;49.782;9.932;2024-02-04T13:54:48;1.08;;;0.88;;
10645;SDS011;5371;49.782;9.932;2024-02-04T13:57:15;0.87;;;0.70;;
10645;SDS011;5371;49.782;9.932;2024-02-04T13:59:42;1.50;;;0.75;;
10645;SDS011;5371;49.782;9.932;2024-02-04T14:02:09;2.47;;;0.80;;
10645;SDS011;5371;49.782;9.932;2024-02-04T14:04:37;1.83;;;0.98;;
10645;SDS011;5371;49.782;9.932;2024-02-04T14:07:04;1.27;;;0.90;;
10645;SDS011;5371;49.782;9.932;2024-02-04T14:09:31;1.30;;;0.90;;
10645;SDS011;5371;49.782;9.932;2024-02-04T14:11:58;0.90;;;0.80;;
10645;SDS011;5371;49.782;9.932;2024-02-04T14:14:25;0.90;;;0.73;;
10645;SDS011;5371;49.782;9.932;2024-02-04T14:16:52;0.98;;;0.88;;
10645;SDS011;5371;49.782;9.932;2024-02-04T14:19:19;1.17;;;0.90;;
10645;SDS011;5371;49.782;9.932;2024-02-04T14:21:47;0.80;;;0.80;;
10645;SDS011;5371;49.782;9.932;2024-02-04T14:24:14;0.82;;;0.80;;
10645;SDS011;5371;49.782;9.932;2024-02-04T14:26:41;0.70;;;0.70;;
10645;SDS011;5371;49.782;9.932;2024-02-04T14:29:09;1.15;;;0.82;;
10645;SDS011;5371;49.782;9.932;2024-02-04T14:31:36;0.73;;;0.73;;
10645;SDS011;5371;49.782;9.932;2024-02-04T14:34:03;1.38;;;0.88;;
10645;SDS011;5371;49.782;9.932;2024-02-04T14:36:30;1.75;;;0.88;;
10645;SDS011;5371;49.782;9.932;2024-02-04T14:38:58;0.98;;;0.73;;
10645;SDS011;5371;49.782;9.932;2024-02-04T14:41:26;1.08;;;0.80;;
10645;SDS011;5371;49.782;9.932;2024-02-04T14:43:53;0.70;;;0.70;;
10645;SDS011;5371;49.782;9.932;2024-02-04T14:46:20;1.10;;;0.70;;
10645;SDS011;5371;49.782;9.932;2024-02-04T14:48:47;1.50;;;1.00;;
10645;SDS011;5371;49.782;9.932;2024-02-04T14:51:14;1.00;;;0.90;;
10645;SDS011;5371;49.782;9.932;2024-02-04T14:53:41;1.08;;;0.98;;
10645;SDS011;5371;49.782;9.932;2024-02-04T14:56:09;0.82;;;0.80;;
10645;SDS011;5371;49.782;9.932;2024-02-04T14:58:36;0.80;;;0.80;;
10645;SDS011;5371;49.782;9.932;2024-02-04T15:01:03;0.70;;;0.70;;
10645;SDS011;5371;49.782;9.932;2024-02-04T15:03:30;0.97;;;0.87;;
10645;SDS011;5371;49.782;9.932;2024-02-04T15:05:57;0.82;;;0.80;;
10645;SDS011;5371;49.782;9.932;2024-02-04T15:08:24;1.00;;;0.90;;